createdAt,value
2019-04-26T00:01:53.840Z,11.88
2019-04-26T00:05:00.100Z,11.72
2019-04-26T00:08:05.315Z,11.69
2019-04-26T00:11:25.835Z,11.82
2019-04-26T00:15:02.039Z,11.82
2019-04-26T00:18:08.724Z,11.72
2019-04-26T00:21:14.065Z,11.64
2019-04-26T00:24:19.638Z,11.72
2019-04-26T00:27:24.809Z,11.30
2019-04-26T00:30:29.948Z,11.10
2019-04-26T00:33:35.152Z,10.96
2019-04-26T00:36:40.608Z,11.11
2019-04-26T00:39:45.737Z,10.99
2019-04-26T00:42:52.079Z,10.77
2019-04-26T00:45:58.885Z,10.71
2019-04-26T00:49:06.079Z,10.78
2019-04-26T00:52:13.002Z,10.89
2019-04-26T00:55:19.848Z,10.61
2019-04-26T00:58:26.577Z,10.70
2019-04-26T01:01:35.180Z,10.50
2019-04-26T01:04:40.363Z,10.51
2019-04-26T01:07:47.166Z,10.44
2019-04-26T01:10:52.247Z,10.35
2019-04-26T01:13:57.415Z,10.23
2019-04-26T01:17:02.538Z,10.10
2019-04-26T01:20:08.373Z,10.19
2019-04-26T01:23:17.423Z,10.23
2019-04-26T01:26:30.699Z,10.22
2019-04-26T01:29:37.518Z,10.35
2019-04-26T01:32:44.537Z,10.38
2019-04-26T01:35:50.595Z,10.07
2019-04-26T01:38:58.877Z,9.88
2019-04-26T01:42:11.652Z,9.84
2019-04-26T01:45:45.542Z,9.72
2019-04-26T01:48:57.070Z,9.94
2019-04-26T01:52:09.174Z,10.03
2019-04-26T01:55:14.465Z,10.12
2019-04-26T01:58:21.921Z,9.78
2019-04-26T02:01:49.709Z,9.52
2019-04-26T02:04:57.517Z,9.55
2019-04-26T02:08:02.694Z,9.39
2019-04-26T02:11:07.833Z,9.41
2019-04-26T02:14:13.561Z,9.46
2019-04-26T02:17:18.666Z,9.48
2019-04-26T02:21:13.737Z,9.16
2019-04-26T02:24:50.345Z,9.36
2019-04-26T02:27:55.470Z,9.72
2019-04-26T02:31:00.778Z,9.87
2019-04-26T02:34:07.911Z,10.12
2019-04-26T02:37:15.111Z,10.16
2019-04-26T02:40:20.398Z,9.96
2019-04-26T02:43:29.636Z,9.91
2019-04-26T02:46:50.100Z,9.95
2019-04-26T02:49:59.374Z,9.99
2019-04-26T02:53:35.351Z,9.93
2019-04-26T02:56:42.963Z,10.03
2019-04-26T02:59:51.074Z,10.00
2019-04-26T03:03:02.243Z,9.93
2019-04-26T03:06:07.610Z,9.73
2019-04-26T03:09:15.142Z,9.73
2019-04-26T03:12:24.157Z,9.67
2019-04-26T03:15:56.750Z,9.74
2019-04-26T03:19:26.909Z,9.78
2019-04-26T03:22:43.243Z,9.69
2019-04-26T03:26:19.702Z,9.80
2019-04-26T03:29:38.975Z,9.78
2019-04-26T03:33:20.521Z,9.79
2019-04-26T03:37:32.575Z,9.89
2019-04-26T03:41:02.850Z,9.82
2019-04-26T03:44:31.245Z,9.76
2019-04-26T03:47:43.742Z,10.02
2019-04-26T03:50:56.982Z,10.08
2019-04-26T03:54:10.697Z,9.95
2019-04-26T03:57:30.720Z,10.14
2019-04-26T04:00:47.819Z,10.16
2019-04-26T04:03:58.963Z,10.09
2019-04-26T04:07:07.293Z,10.04
2019-04-26T04:10:19.304Z,10.17
2019-04-26T04:13:55.494Z,10.10
2019-04-26T04:17:28.001Z,10.21
2019-04-26T04:21:34.077Z,10.23
2019-04-26T04:24:50.796Z,10.32
2019-04-26T04:28:06.388Z,10.51
2019-04-26T04:31:19.339Z,10.49
2019-04-26T04:34:37.660Z,10.58
2019-04-26T04:38:05.535Z,10.58
2019-04-26T04:41:17.487Z,10.51
2019-04-26T04:45:22.370Z,10.62
2019-04-26T04:48:48.454Z,10.52
2019-04-26T04:52:24.291Z,10.65
2019-04-26T04:55:42.931Z,10.62
2019-04-26T04:58:53.446Z,10.44
2019-04-26T05:02:32.044Z,10.51
2019-04-26T05:06:07.349Z,10.47
2019-04-26T05:09:10.449Z,10.49
2019-04-26T05:12:23.952Z,10.51
2019-04-26T05:15:54.917Z,10.60
2019-04-26T05:19:35.983Z,10.76
2019-04-26T05:23:28.334Z,10.57
2019-04-26T05:27:22.492Z,10.63
2019-04-26T05:31:12.357Z,10.65
2019-04-26T05:34:35.285Z,10.64
2019-04-26T05:38:01.527Z,10.74
2019-04-26T05:41:35.746Z,10.64
2019-04-26T05:45:30.058Z,10.74
2019-04-26T05:49:25.220Z,10.82
2019-04-26T05:53:15.183Z,10.93
2019-04-26T05:56:46.352Z,10.76
2019-04-26T06:00:32.857Z,10.86
2019-04-26T06:04:15.655Z,10.87
2019-04-26T06:07:37.927Z,10.99
2019-04-26T06:10:59.971Z,11.16
2019-04-26T06:14:48.824Z,11.02
2019-04-26T06:18:14.292Z,11.02
2019-04-26T06:21:44.193Z,10.96
2019-04-26T06:25:20.255Z,10.90
2019-04-26T06:28:37.858Z,11.08
2019-04-26T06:32:04.707Z,11.30
2019-04-26T06:35:16.961Z,11.23
2019-04-26T06:39:12.040Z,11.06
2019-04-26T06:43:01.278Z,11.03
2019-04-26T06:47:02.634Z,11.07
2019-04-26T06:50:20.148Z,11.32
2019-04-26T06:54:15.539Z,11.35
2019-04-26T06:57:59.966Z,11.51
2019-04-26T07:01:24.750Z,11.51
2019-04-26T07:05:08.965Z,11.48
2019-04-26T07:08:30.039Z,11.44
2019-04-26T07:12:44.534Z,11.36
2019-04-26T07:16:22.373Z,11.62
2019-04-26T07:20:02.483Z,11.75
2019-04-26T07:24:01.192Z,11.64
2019-04-26T07:27:33.942Z,11.60
2019-04-26T07:30:50.222Z,11.52
2019-04-26T07:34:36.176Z,11.81
2019-04-26T07:38:46.333Z,11.75
2019-04-26T07:42:45.745Z,11.76
2019-04-26T07:46:22.290Z,11.71
2019-04-26T07:50:09.887Z,11.86
2019-04-26T07:53:46.608Z,11.82
2019-04-26T07:57:39.037Z,11.70
2019-04-26T08:00:53.571Z,11.50
2019-04-26T08:04:07.334Z,11.66
2019-04-26T08:07:19.431Z,11.67
2019-04-26T08:10:27.501Z,11.76
2019-04-26T08:13:35.598Z,11.64
2019-04-26T08:17:06.563Z,11.68
2019-04-26T08:20:34.668Z,11.50
2019-04-26T08:24:01.744Z,11.64
2019-04-26T08:27:22.557Z,11.68
2019-04-26T08:30:23.799Z,11.38
2019-04-26T08:33:36.525Z,11.46
2019-04-26T08:36:50.487Z,11.43
2019-04-26T08:39:57.722Z,11.24
2019-04-26T08:43:30.844Z,11.10
2019-04-26T08:46:47.587Z,11.26
2019-04-26T08:50:02.543Z,11.40
2019-04-26T08:53:09.402Z,11.36
2019-04-26T08:56:17.508Z,11.45
2019-04-26T08:59:26.723Z,11.44
2019-04-26T09:02:55.151Z,11.30
2019-04-26T09:06:34.648Z,11.28
2019-04-26T09:09:42.971Z,11.68
2019-04-26T09:12:51.235Z,11.50
2019-04-26T09:16:14.632Z,11.38
2019-04-26T09:19:19.871Z,11.61
2019-04-26T09:22:40.602Z,11.61
2019-04-26T09:25:58.739Z,11.41
2019-04-26T09:29:30.232Z,11.37
2019-04-26T09:32:41.609Z,11.60
2019-04-26T09:35:46.877Z,11.47
2019-04-26T09:38:52.074Z,11.44
2019-04-26T09:42:01.216Z,11.26
2019-04-26T09:45:27.539Z,11.20
2019-04-26T09:48:51.900Z,11.10
2019-04-26T09:51:57.310Z,11.07
2019-04-26T09:55:02.476Z,11.25
2019-04-26T09:58:08.704Z,11.21
2019-04-26T10:01:14.113Z,11.15
2019-04-26T10:04:19.270Z,11.47
2019-04-26T10:07:24.491Z,11.23
2019-04-26T10:10:35.174Z,11.40
2019-04-26T10:13:43.578Z,11.51
2019-04-26T10:17:03.600Z,11.48
2019-04-26T10:20:08.837Z,11.19
2019-04-26T10:23:15.040Z,11.16
2019-04-26T10:26:27.740Z,10.97
2019-04-26T10:29:30.181Z,11.59
2019-04-26T10:32:35.465Z,11.01
2019-04-26T10:35:40.707Z,11.07
2019-04-26T10:38:45.994Z,11.50
2019-04-26T10:41:51.106Z,11.43
2019-04-26T10:44:56.300Z,11.30
2019-04-26T10:48:01.467Z,11.60
2019-04-26T10:51:07.277Z,11.96
2019-04-26T10:54:18.785Z,11.78
2019-04-26T10:57:36.887Z,12.33
2019-04-26T11:00:43.385Z,12.64
2019-04-26T11:03:48.576Z,12.09
2019-04-26T11:06:53.688Z,11.82
2019-04-26T11:09:58.990Z,11.31
2019-04-26T11:13:04.537Z,11.28
2019-04-26T11:16:09.742Z,11.37
2019-04-26T11:19:14.960Z,11.25
2019-04-26T11:22:29.022Z,11.43
2019-04-26T11:25:28.235Z,11.66
2019-04-26T11:28:33.979Z,11.87
2019-04-26T11:31:39.286Z,11.68
2019-04-26T11:34:44.412Z,11.71
2019-04-26T11:37:55.097Z,11.94
2019-04-26T11:41:05.913Z,11.99
2019-04-26T11:44:04.553Z,11.98
2019-04-26T11:47:09.767Z,12.29
2019-04-26T11:50:16.086Z,12.56
2019-04-26T11:53:21.711Z,12.70
2019-04-26T11:56:26.877Z,12.37
2019-04-26T11:59:32.054Z,12.79
2019-04-26T12:02:38.565Z,12.47
2019-04-26T12:06:06.311Z,12.66
2019-04-26T12:09:22.795Z,12.50
2019-04-26T12:12:27.964Z,12.55
2019-04-26T12:15:33.134Z,12.34
2019-04-26T12:18:40.186Z,11.44
2019-04-26T12:21:45.311Z,11.16
2019-04-26T12:24:50.590Z,11.31
2019-04-26T12:27:55.946Z,11.39
2019-04-26T12:31:01.163Z,11.21
2019-04-26T12:34:07.522Z,11.66
2019-04-26T12:37:19.776Z,11.54
2019-04-26T12:40:19.683Z,11.63
2019-04-26T12:43:26.178Z,11.34
2019-04-26T12:46:37.447Z,11.28
2019-04-26T12:49:42.832Z,11.16
2019-04-26T12:52:51.404Z,11.28
2019-04-26T12:55:58.166Z,11.16
2019-04-26T12:59:01.789Z,11.30
2019-04-26T13:02:06.996Z,11.18
2019-04-26T13:05:14.533Z,11.03
2019-04-26T13:08:19.445Z,10.94
2019-04-26T13:11:49.083Z,10.94
2019-04-26T13:15:16.824Z,11.05
2019-04-26T13:18:22.269Z,11.25
2019-04-26T13:21:27.479Z,11.27
2019-04-26T13:24:35.469Z,10.91
2019-04-26T13:27:41.646Z,10.88
2019-04-26T13:30:46.429Z,10.85
2019-04-26T13:33:51.557Z,11.11
2019-04-26T13:36:59.136Z,11.11
2019-04-26T13:40:03.482Z,11.05
2019-04-26T13:43:09.167Z,11.04
2019-04-26T13:46:45.800Z,11.21
2019-04-26T13:50:02.573Z,11.01
2019-04-26T13:53:08.299Z,11.07
2019-04-26T13:56:14.340Z,11.44
2019-04-26T13:59:19.449Z,11.52
2019-04-26T14:02:25.653Z,11.74
2019-04-26T14:05:30.840Z,11.91
2019-04-26T14:08:36.004Z,11.83
2019-04-26T14:11:41.297Z,12.15
2019-04-26T14:14:46.530Z,12.05
2019-04-26T14:17:51.666Z,12.20
2019-04-26T14:20:59.046Z,12.05
2019-04-26T14:24:25.819Z,11.89
2019-04-26T14:27:53.174Z,11.72
2019-04-26T14:30:58.378Z,11.45
2019-04-26T14:34:05.394Z,11.41
2019-04-26T14:37:11.264Z,11.31
2019-04-26T14:40:17.909Z,11.18
2019-04-26T14:43:23.557Z,11.10
2019-04-26T14:46:28.819Z,11.04
2019-04-26T14:49:39.219Z,10.92
2019-04-26T14:52:40.990Z,10.83
2019-04-26T14:55:46.122Z,10.78
2019-04-26T14:58:52.262Z,10.81
2019-04-26T15:02:19.341Z,10.84
2019-04-26T15:05:46.553Z,10.91
2019-04-26T15:08:53.099Z,10.98
2019-04-26T15:12:01.223Z,10.96
2019-04-26T15:15:05.736Z,10.94
2019-04-26T15:18:12.304Z,10.80
2019-04-26T15:21:17.502Z,10.82
2019-04-26T15:24:23.040Z,10.72
2019-04-26T15:27:32.253Z,10.60
2019-04-26T15:30:43.134Z,10.63
2019-04-26T15:33:48.567Z,10.67
2019-04-26T15:36:50.148Z,10.64
2019-04-26T15:40:13.385Z,10.64
2019-04-26T15:43:42.825Z,10.65
2019-04-26T15:47:16.601Z,10.79
2019-04-26T15:50:50.234Z,10.83
2019-04-26T15:53:49.771Z,10.85
2019-04-26T15:56:56.120Z,11.26
2019-04-26T16:00:03.873Z,11.46
2019-04-26T16:03:10.112Z,11.50
2019-04-26T16:06:15.287Z,11.22
2019-04-26T16:09:22.944Z,11.09
2019-04-26T16:12:28.450Z,11.29
2019-04-26T16:15:33.952Z,11.48
2019-04-26T16:18:39.147Z,11.16
2019-04-26T16:21:44.314Z,11.31
2019-04-26T16:24:51.163Z,11.69
2019-04-26T16:28:14.297Z,11.56
2019-04-26T16:31:42.194Z,11.62
2019-04-26T16:34:48.789Z,11.43
2019-04-26T16:37:54.133Z,11.01
2019-04-26T16:40:59.299Z,10.94
2019-04-26T16:44:04.590Z,10.88
2019-04-26T16:47:09.970Z,10.98
2019-04-26T16:50:23.246Z,10.77
2019-04-26T16:53:37.696Z,10.75
2019-04-26T16:56:29.824Z,10.78
2019-04-26T16:59:34.989Z,10.74
2019-04-26T17:02:40.200Z,10.81
2019-04-26T17:05:48.393Z,10.86
2019-04-26T17:08:58.628Z,10.91
2019-04-26T17:11:59.360Z,11.08
2019-04-26T17:15:04.964Z,11.18
2019-04-26T17:18:10.170Z,11.10
2019-04-26T17:21:17.521Z,11.06
2019-04-26T17:24:46.231Z,11.32
2019-04-26T17:27:48.796Z,11.38
2019-04-26T17:30:54.058Z,11.31
2019-04-26T17:33:59.250Z,11.16
2019-04-26T17:37:11.707Z,11.08
2019-04-26T17:40:11.507Z,11.09
2019-04-26T17:43:16.659Z,11.02
2019-04-26T17:46:21.882Z,10.89
2019-04-26T17:49:28.915Z,10.76
2019-04-26T17:52:36.190Z,10.65
2019-04-26T17:55:41.487Z,10.63
2019-04-26T17:58:52.364Z,10.58
2019-04-26T18:02:00.837Z,10.49
2019-04-26T18:05:03.367Z,10.44
2019-04-26T18:08:31.578Z,10.33
2019-04-26T18:11:19.681Z,10.30
2019-04-26T18:14:22.062Z,10.33
2019-04-26T18:17:50.187Z,10.29
2019-04-26T18:21:05.725Z,10.34
2019-04-26T18:24:10.884Z,10.28
2019-04-26T18:27:16.100Z,10.19
2019-04-26T18:30:21.323Z,10.14
2019-04-26T18:33:26.531Z,10.10
2019-04-26T18:36:33.275Z,10.07
2019-04-26T18:39:38.537Z,10.05
2019-04-26T18:42:43.731Z,10.07
2019-04-26T18:45:50.516Z,10.06
2019-04-26T18:48:55.717Z,9.99
2019-04-26T18:52:00.847Z,10.07
2019-04-26T18:55:16.445Z,10.00
2019-04-26T18:58:21.587Z,9.97
2019-04-26T19:01:26.767Z,9.92
2019-04-26T19:04:33.487Z,9.94
2019-04-26T19:07:38.982Z,9.93
2019-04-26T19:10:44.256Z,9.89
2019-04-26T19:14:06.316Z,9.90
2019-04-26T19:17:25.989Z,9.87
2019-04-26T19:20:34.994Z,9.82
2019-04-26T19:23:41.547Z,9.84
2019-04-26T19:26:50.022Z,9.81
2019-04-26T19:29:54.648Z,9.75
2019-04-26T19:32:59.844Z,9.71
2019-04-26T19:36:05.212Z,9.66
2019-04-26T19:39:12.015Z,9.63
2019-04-26T19:42:19.117Z,9.64
2019-04-26T19:45:39.515Z,9.61
2019-04-26T19:49:03.440Z,9.65
2019-04-26T19:52:18.566Z,9.69
2019-04-26T19:55:47.436Z,9.61
2019-04-26T19:58:56.963Z,9.46
2019-04-26T20:01:57.756Z,9.50
2019-04-26T20:05:06.681Z,9.34
2019-04-26T20:08:11.945Z,9.32
2019-04-26T20:11:18.718Z,9.29
2019-04-26T20:14:39.405Z,9.34
2019-04-26T20:17:31.357Z,9.28
2019-04-26T20:20:36.576Z,9.20
2019-04-26T20:23:43.821Z,9.01
2019-04-26T20:26:48.869Z,8.90
2019-04-26T20:29:55.020Z,8.87
2019-04-26T20:33:01.774Z,8.74
2019-04-26T20:36:07.067Z,8.57
2019-04-26T20:39:12.582Z,8.38
2019-04-26T20:42:17.810Z,8.39
2019-04-26T20:45:22.977Z,8.37
2019-04-26T20:48:32.944Z,8.29
2019-04-26T20:51:36.005Z,8.34
2019-04-26T20:54:41.701Z,8.21
2019-04-26T20:57:48.037Z,8.29
2019-04-26T21:00:54.505Z,8.45
2019-04-26T21:03:59.937Z,8.54
2019-04-26T21:07:06.839Z,8.59
2019-04-26T21:10:15.217Z,8.72
2019-04-26T21:13:18.973Z,8.77
2019-04-26T21:16:24.309Z,8.91
2019-04-26T21:19:32.727Z,8.77
2019-04-26T21:22:36.404Z,8.68
2019-04-26T21:25:53.577Z,8.58
2019-04-26T21:29:20.173Z,8.61
2019-04-26T21:32:33.231Z,8.62
2019-04-26T21:35:44.514Z,8.59
2019-04-26T21:39:11.516Z,8.58
2019-04-26T21:42:17.291Z,8.69
2019-04-26T21:45:28.422Z,8.73
2019-04-26T21:48:32.757Z,8.83
2019-04-26T21:51:39.190Z,8.77
2019-04-26T21:54:44.499Z,8.73
2019-04-26T21:57:49.689Z,8.79
2019-04-26T22:01:15.680Z,8.82
2019-04-26T22:04:21.025Z,8.82
2019-04-26T22:07:26.294Z,8.85
2019-04-26T22:10:44.619Z,8.93
2019-04-26T22:13:59.149Z,8.94
2019-04-26T22:17:29.107Z,8.93
2019-04-26T22:20:56.072Z,9.01
2019-04-26T22:24:19.334Z,8.88
2019-04-26T22:27:25.374Z,8.96
2019-04-26T22:30:30.783Z,9.08
2019-04-26T22:33:36.058Z,9.16
2019-04-26T22:36:41.252Z,9.00
2019-04-26T22:39:46.446Z,8.91
2019-04-26T22:42:55.834Z,8.98
2019-04-26T22:46:27.018Z,8.99
2019-04-26T22:49:30.090Z,8.96
2019-04-26T22:52:35.295Z,8.91
2019-04-26T22:55:40.580Z,8.93
2019-04-26T22:58:45.806Z,8.99
2019-04-26T23:01:53.623Z,8.96
2019-04-26T23:05:00.569Z,9.04
2019-04-26T23:08:07.139Z,8.94
2019-04-26T23:11:13.451Z,8.84
2019-04-26T23:14:40.753Z,8.79
2019-04-26T23:17:57.879Z,8.79
2019-04-26T23:21:12.040Z,8.81
2019-04-26T23:24:18.952Z,8.91
2019-04-26T23:27:24.340Z,9.16
2019-04-26T23:30:31.715Z,9.02
2019-04-26T23:33:37.574Z,9.07
2019-04-26T23:36:43.702Z,9.04
2019-04-26T23:39:50.978Z,8.97
2019-04-26T23:42:55.818Z,9.15
2019-04-26T23:46:01.209Z,9.01
2019-04-26T23:49:06.390Z,9.06
2019-04-26T23:52:14.554Z,9.07
2019-04-26T23:55:18.581Z,9.21
2019-04-26T23:58:23.701Z,8.97
